sensor_id;sensor_type;location;lat;lon;timestamp;pressure;altitude;pressure_sealevel;temperature;humidity
57234;BME280;43090;52.604;13.318;2023-02-12T00:02:24;102795.66;;;5.84;100.00
57234;BME280;43090;52.604;13.318;2023-02-12T00:04:51;102799.94;;;5.93;100.00
57234;BME280;43090;52.604;13.318;2023-02-12T00:07:17;102810.00;;;5.76;100.00
57234;BME280;43090;52.604;13.318;2023-02-12T00:09:44;102815.41;;;5.71;100.00
57234;BME280;43090;52.604;13.318;2023-02-12T00:12:10;102809.88;;;5.83;100.00
57234;BME280;43090;52.604;13.318;2023-02-12T00:14:37;102813.56;;;5.75;100.00
57234;BME280;43090;52.604;13.318;2023-02-12T00:17:03;102820.78;;;5.68;100.00
57234;BME280;43090;52.604;13.318;2023-02-12T00:19:30;102821.75;;;5.64;100.00
57234;BME280;43090;52.604;13.318;2023-02-12T00:21:56;102832.34;;;5.65;100.00
57234;BME280;43090;52.604;13.318;2023-02-12T00:24:23;102834.16;;;5.62;100.00
57234;BME280;43090;52.604;13.318;2023-02-12T00:26:50;102827.88;;;5.66;100.00
57234;BME280;43090;52.604;13.318;2023-02-12T00:29:16;102829.88;;;5.51;100.00
57234;BME280;43090;52.604;13.318;2023-02-12T00:31:45;102823.69;;;5.53;100.00
57234;BME280;43090;52.604;13.318;2023-02-12T00:34:12;102835.25;;;5.50;100.00
57234;BME280;43090;52.604;13.318;2023-02-12T00:36:38;102833.31;;;5.60;100.00
57234;BME280;43090;52.604;13.318;2023-02-12T00:39:05;102827.03;;;5.65;100.00
57234;BME280;43090;52.604;13.318;2023-02-12T00:41:31;102839.44;;;5.63;100.00
57234;BME280;43090;52.604;13.318;2023-02-12T00:43:58;102833.19;;;5.67;100.00
57234;BME280;43090;52.604;13.318;2023-02-12T00:46:25;102830.72;;;5.55;100.00
57234;BME280;43090;52.604;13.318;2023-02-12T00:48:51;102832.41;;;5.62;100.00
57234;BME280;43090;52.604;13.318;2023-02-12T00:51:18;102835.06;;;5.62;100.00
57234;BME280;43090;52.604;13.318;2023-02-12T00:53:45;102845.59;;;5.67;100.00
57234;BME280;43090;52.604;13.318;2023-02-12T00:56:11;102849.53;;;5.43;100.00
57234;BME280;43090;52.604;13.318;2023-02-12T00:58:38;102850.19;;;5.57;100.00
57234;BME280;43090;52.604;13.318;2023-02-12T01:01:05;102841.44;;;5.50;100.00
57234;BME280;43090;52.604;13.318;2023-02-12T01:03:31;102853.75;;;5.56;100.00
57234;BME280;43090;52.604;13.318;2023-02-12T01:05:58;102857.38;;;5.52;100.00
57234;BME280;43090;52.604;13.318;2023-02-12T01:08:25;102844.91;;;5.54;100.00
57234;BME280;43090;52.604;13.318;2023-02-12T01:10:58;102846.88;;;5.43;100.00
57234;BME280;43090;52.604;13.318;2023-02-12T01:13:25;102853.75;;;5.56;100.00
57234;BME280;43090;52.604;13.318;2023-02-12T01:16:08;102852.97;;;5.49;100.00
57234;BME280;43090;52.604;13.318;2023-02-12T01:19:05;102853.00;;;5.48;100.00
57234;BME280;43090;52.604;13.318;2023-02-12T01:21:33;102866.31;;;5.45;100.00
57234;BME280;43090;52.604;13.318;2023-02-12T01:24:00;102862.81;;;5.43;100.00
57234;BME280;43090;52.604;13.318;2023-02-12T01:26:27;102863.81;;;5.37;100.00
57234;BME280;43090;52.604;13.318;2023-02-12T01:28:55;102869.91;;;5.41;100.00
57234;BME280;43090;52.604;13.318;2023-02-12T01:31:22;102872.56;;;5.41;100.00
57234;BME280;43090;52.604;13.318;2023-02-12T01:33:51;102874.44;;;5.37;100.00
57234;BME280;43090;52.604;13.318;2023-02-12T01:36:17;102862.91;;;5.37;100.00
57234;BME280;43090;52.604;13.318;2023-02-12T01:38:44;102871.75;;;5.36;100.00
57234;BME280;43090;52.604;13.318;2023-02-12T01:41:14;102880.75;;;5.28;100.00
57234;BME280;43090;52.604;13.318;2023-02-12T01:43:41;102891.25;;;5.36;100.00
57234;BME280;43090;52.604;13.318;2023-02-12T01:46:09;102887.63;;;5.42;100.00
57234;BME280;43090;52.604;13.318;2023-02-12T01:48:36;102887.72;;;5.34;100.00
57234;BME280;43090;52.604;13.318;2023-02-12T01:51:04;102892.22;;;5.29;100.00
57234;BME280;43090;52.604;13.318;2023-02-12T01:53:34;102898.16;;;5.48;100.00
57234;BME280;43090;52.604;13.318;2023-02-12T01:56:01;102897.34;;;5.43;100.00
57234;BME280;43090;52.604;13.318;2023-02-12T01:58:30;102897.09;;;5.60;100.00
57234;BME280;43090;52.604;13.318;2023-02-12T02:01:04;102899.00;;;5.50;100.00
57234;BME280;43090;52.604;13.318;2023-02-12T02:03:33;102901.13;;;5.28;100.00
57234;BME280;43090;52.604;13.318;2023-02-12T02:06:11;102900.16;;;5.33;100.00
57234;BME280;43090;52.604;13.318;2023-02-12T02:08:39;102902.72;;;5.38;100.00
57234;BME280;43090;52.604;13.318;2023-02-12T02:11:06;102910.59;;;5.46;100.00
57234;BME280;43090;52.604;13.318;2023-02-12T02:13:53;102916.91;;;5.39;100.00
57234;BME280;43090;52.604;13.318;2023-02-12T02:16:40;102910.53;;;5.49;100.00
57234;BME280;43090;52.604;13.318;2023-02-12T02:19:08;102912.41;;;5.44;100.00
57234;BME280;43090;52.604;13.318;2023-02-12T02:21:42;102909.47;;;5.62;100.00
57234;BME280;43090;52.604;13.318;2023-02-12T02:24:28;102909.75;;;5.42;100.00
57234;BME280;43090;52.604;13.318;2023-02-12T02:38:44;102910.28;;;5.66;100.00
57234;BME280;43090;52.604;13.318;2023-02-12T02:41:18;102911.13;;;5.70;100.00
57234;BME280;43090;52.604;13.318;2023-02-12T02:43:49;102900.66;;;5.59;100.00
57234;BME280;43090;52.604;13.318;2023-02-12T02:46:19;102904.16;;;5.62;100.00
57234;BME280;43090;52.604;13.318;2023-02-12T02:48:52;102906.03;;;5.54;100.00
57234;BME280;43090;52.604;13.318;2023-02-12T02:54:28;102916.66;;;5.54;100.00
57234;BME280;43090;52.604;13.318;2023-02-12T02:57:02;102914.78;;;5.61;100.00
57234;BME280;43090;52.604;13.318;2023-02-12T02:59:32;102927.94;;;5.70;100.00
57234;BME280;43090;52.604;13.318;2023-02-12T03:02:07;102931.47;;;5.71;100.00
57234;BME280;43090;52.604;13.318;2023-02-12T03:04:39;102932.41;;;5.68;100.00
57234;BME280;43090;52.604;13.318;2023-02-12T03:10:03;102936.75;;;5.74;100.00
57234;BME280;43090;52.604;13.318;2023-02-12T03:12:38;102930.63;;;5.67;100.00
57234;BME280;43090;52.604;13.318;2023-02-12T03:15:10;102931.03;;;5.41;100.00
57234;BME280;43090;52.604;13.318;2023-02-12T03:18:11;102932.81;;;5.40;100.00
57234;BME280;43090;52.604;13.318;2023-02-12T03:21:35;102941.69;;;5.38;100.00
57234;BME280;43090;52.604;13.318;2023-02-12T03:24:12;102947.03;;;5.38;100.00
57234;BME280;43090;52.604;13.318;2023-02-12T03:26:48;102949.41;;;5.56;100.00
57234;BME280;43090;52.604;13.318;2023-02-12T03:29:16;102952.22;;;5.45;100.00
57234;BME280;43090;52.604;13.318;2023-02-12T03:32:04;102948.63;;;5.49;100.00
57234;BME280;43090;52.604;13.318;2023-02-12T03:34:55;102951.31;;;5.48;100.00
57234;BME280;43090;52.604;13.318;2023-02-12T03:37:33;102947.50;;;5.64;100.00
57234;BME280;43090;52.604;13.318;2023-02-12T03:42:36;102947.50;;;5.64;100.00
57234;BME280;43090;52.604;13.318;2023-02-12T03:47:43;102952.97;;;5.55;100.00
57234;BME280;43090;52.604;13.318;2023-02-12T03:52:37;102959.00;;;5.66;100.00
57234;BME280;43090;52.604;13.318;2023-02-12T03:55:04;102957.44;;;5.51;100.00
57234;BME280;43090;52.604;13.318;2023-02-12T04:04:27;102970.66;;;5.58;100.00
57234;BME280;43090;52.604;13.318;2023-02-12T04:06:54;102982.97;;;5.65;100.00
57234;BME280;43090;52.604;13.318;2023-02-12T04:09:21;102981.09;;;5.70;100.00
57234;BME280;43090;52.604;13.318;2023-02-12T04:14:36;102989.16;;;5.64;100.00
57234;BME280;43090;52.604;13.318;2023-02-12T04:17:14;102982.91;;;5.68;100.00
57234;BME280;43090;52.604;13.318;2023-02-12T04:22:37;102979.78;;;5.37;100.00
57234;BME280;43090;52.604;13.318;2023-02-12T04:25:17;102988.41;;;5.54;100.00
57234;BME280;43090;52.604;13.318;2023-02-12T04:27:56;102980.94;;;5.15;100.00
57234;BME280;43090;52.604;13.318;2023-02-12T04:30:27;102985.16;;;5.30;100.00
57234;BME280;43090;52.604;13.318;2023-02-12T04:33:01;102981.69;;;5.28;100.00
57234;BME280;43090;52.604;13.318;2023-02-12T04:35:30;102978.91;;;5.36;100.00
57234;BME280;43090;52.604;13.318;2023-02-12T04:40:28;102991.28;;;5.39;100.00
57234;BME280;43090;52.604;13.318;2023-02-12T04:46:38;102986.22;;;5.20;100.00
57234;BME280;43090;52.604;13.318;2023-02-12T04:49:05;102978.03;;;5.36;100.00
57234;BME280;43090;52.604;13.318;2023-02-12T04:51:31;102978.91;;;5.38;100.00
57234;BME280;43090;52.604;13.318;2023-02-12T04:53:57;102984.22;;;5.38;100.00
57234;BME280;43090;52.604;13.318;2023-02-12T04:56:24;102979.03;;;5.28;100.00
57234;BME280;43090;52.604;13.318;2023-02-12T04:58:50;102989.56;;;5.33;100.00
57234;BME280;43090;52.604;13.318;2023-02-12T05:01:19;102978.97;;;5.31;100.00
57234;BME280;43090;52.604;13.318;2023-02-12T05:03:45;102981.50;;;5.41;100.00
57234;BME280;43090;52.604;13.318;2023-02-12T05:06:11;102982.38;;;5.43;100.00
57234;BME280;43090;52.604;13.318;2023-02-12T05:08:38;102984.28;;;5.31;100.00
57234;BME280;43090;52.604;13.318;2023-02-12T05:11:05;102983.38;;;5.32;100.00
57234;BME280;43090;52.604;13.318;2023-02-12T05:13:32;102983.44;;;5.29;100.00
57234;BME280;43090;52.604;13.318;2023-02-12T05:15:59;102991.53;;;5.20;100.00
57234;BME280;43090;52.604;13.318;2023-02-12T05:18:25;102995.91;;;5.24;100.00
57234;BME280;43090;52.604;13.318;2023-02-12T05:20:55;102994.28;;;5.12;100.00
57234;BME280;43090;52.604;13.318;2023-02-12T05:23:22;102993.38;;;5.13;100.00
57234;BME280;43090;52.604;13.318;2023-02-12T05:25:50;102996.13;;;5.06;100.00
57234;BME280;43090;52.604;13.318;2023-02-12T05:28:17;102999.78;;;4.95;100.00
57234;BME280;43090;52.604;13.318;2023-02-12T05:30:43;102995.28;;;5.02;100.00
57234;BME280;43090;52.604;13.318;2023-02-12T05:33:10;102998.84;;;4.99;100.00
57234;BME280;43090;52.604;13.318;2023-02-12T05:35:36;102994.34;;;5.06;100.00
57234;BME280;43090;52.604;13.318;2023-02-12T05:38:03;103004.88;;;5.14;100.00
57234;BME280;43090;52.604;13.318;2023-02-12T05:40:29;102996.84;;;5.17;100.00
57234;BME280;43090;52.604;13.318;2023-02-12T05:42:56;103000.50;;;5.10;100.00
57234;BME280;43090;52.604;13.318;2023-02-12T05:45:22;102996.22;;;4.98;100.00
57234;BME280;43090;52.604;13.318;2023-02-12T05:47:53;103002.38;;;4.98;100.00
57234;BME280;43090;52.604;13.318;2023-02-12T05:50:20;103010.34;;;4.98;100.00
57234;BME280;43090;52.604;13.318;2023-02-12T05:52:46;103012.06;;;5.06;100.00
57234;BME280;43090;52.604;13.318;2023-02-12T05:55:12;103010.19;;;5.14;100.00
57234;BME280;43090;52.604;13.318;2023-02-12T05:57:39;103011.84;;;5.21;100.00
57234;BME280;43090;52.604;13.318;2023-02-12T06:00:06;103001.38;;;5.09;100.00
57234;BME280;43090;52.604;13.318;2023-02-12T06:02:33;103012.84;;;5.12;100.00
57234;BME280;43090;52.604;13.318;2023-02-12T06:05:06;103012.78;;;5.17;100.00
57234;BME280;43090;52.604;13.318;2023-02-12T06:07:32;103022.72;;;4.99;100.00
57234;BME280;43090;52.604;13.318;2023-02-12T06:09:59;103027.97;;;5.06;100.00
57234;BME280;43090;52.604;13.318;2023-02-12T06:12:25;103024.53;;;4.97;100.00
57234;BME280;43090;52.604;13.318;2023-02-12T06:14:52;103024.44;;;5.04;100.00
57234;BME280;43090;52.604;13.318;2023-02-12T06:17:18;103033.25;;;5.09;100.00
57234;BME280;43090;52.604;13.318;2023-02-12T06:19:45;103037.94;;;4.83;100.00
57234;BME280;43090;52.604;13.318;2023-02-12T06:22:11;103035.97;;;5.01;100.00
57234;BME280;43090;52.604;13.318;2023-02-12T06:24:38;103045.63;;;5.11;100.00
57234;BME280;43090;52.604;13.318;2023-02-12T06:27:04;103050.03;;;5.12;100.00
57234;BME280;43090;52.604;13.318;2023-02-12T06:29:30;103046.53;;;5.09;100.00
57234;BME280;43090;52.604;13.318;2023-02-12T06:31:57;103045.78;;;4.94;100.00
57234;BME280;43090;52.604;13.318;2023-02-12T06:34:24;103050.06;;;5.08;100.00
57234;BME280;43090;52.604;13.318;2023-02-12T06:36:50;103052.72;;;5.08;100.00
57234;BME280;43090;52.604;13.318;2023-02-12T06:39:17;103057.97;;;5.14;100.00
57234;BME280;43090;52.604;13.318;2023-02-12T06:41:43;103070.31;;;5.18;100.00
57234;BME280;43090;52.604;13.318;2023-02-12T06:44:10;103075.50;;;5.30;100.00
57234;BME280;43090;52.604;13.318;2023-02-12T06:46:37;103066.69;;;5.28;100.00
57234;BME280;43090;52.604;13.318;2023-02-12T06:49:03;103063.09;;;5.32;100.00
57234;BME280;43090;52.604;13.318;2023-02-12T06:51:30;103071.00;;;5.36;100.00
57234;BME280;43090;52.604;13.318;2023-02-12T06:53:57;103084.28;;;5.39;100.00
57234;BME280;43090;52.604;13.318;2023-02-12T06:56:24;103087.84;;;5.33;100.00
57234;BME280;43090;52.604;13.318;2023-02-12T06:58:53;103081.75;;;5.25;100.00
57234;BME280;43090;52.604;13.318;2023-02-12T07:01:22;103091.44;;;5.30;100.00
57234;BME280;43090;52.604;13.318;2023-02-12T07:03:52;103087.91;;;5.30;100.00
57234;BME280;43090;52.604;13.318;2023-02-12T07:06:20;103092.38;;;5.25;100.00
57234;BME280;43090;52.604;13.318;2023-02-12T07:08:46;103085.19;;;5.33;100.00
57234;BME280;43090;52.604;13.318;2023-02-12T07:11:13;103089.66;;;5.32;100.00
57234;BME280;43090;52.604;13.318;2023-02-12T07:13:48;103091.31;;;5.40;100.00
57234;BME280;43090;52.604;13.318;2023-02-12T07:16:31;103089.50;;;5.45;100.00
57234;BME280;43090;52.604;13.318;2023-02-12T07:26:37;103096.59;;;5.44;100.00
57234;BME280;43090;52.604;13.318;2023-02-12T07:40:23;103109.56;;;5.71;100.00
57234;BME280;43090;52.604;13.318;2023-02-12T08:06:35;103123.38;;;6.02;100.00
57234;BME280;43090;52.604;13.318;2023-02-12T08:09:03;103132.03;;;6.15;100.00
57234;BME280;43090;52.604;13.318;2023-02-12T08:11:30;103125.91;;;6.11;100.00
57234;BME280;43090;52.604;13.318;2023-02-12T08:13:58;103131.13;;;6.17;100.00
57234;BME280;43090;52.604;13.318;2023-02-12T08:16:25;103130.13;;;6.26;100.00
57234;BME280;43090;52.604;13.318;2023-02-12T08:18:52;103134.56;;;6.27;100.00
57234;BME280;43090;52.604;13.318;2023-02-12T08:21:26;103134.50;;;6.30;100.00
57234;BME280;43090;52.604;13.318;2023-02-12T08:28:02;103146.00;;;6.31;100.00
57234;BME280;43090;52.604;13.318;2023-02-12T08:37:50;103157.28;;;6.50;100.00
57234;BME280;43090;52.604;13.318;2023-02-12T08:40:17;103153.81;;;6.45;100.00
57234;BME280;43090;52.604;13.318;2023-02-12T08:42:44;103163.91;;;6.21;100.00
57234;BME280;43090;52.604;13.318;2023-02-12T08:45:15;103166.28;;;6.40;100.00
57234;BME280;43090;52.604;13.318;2023-02-12T08:47:42;103169.22;;;6.21;100.00
57234;BME280;43090;52.604;13.318;2023-02-12T08:50:09;103168.06;;;6.38;100.00
57234;BME280;43090;52.604;13.318;2023-02-12T08:52:36;103174.50;;;6.23;100.00
57234;BME280;43090;52.604;13.318;2023-02-12T08:55:02;103140.22;;;6.01;100.00
57234;BME280;43090;52.604;13.318;2023-02-12T08:57:29;103181.53;;;6.27;100.00
57234;BME280;43090;52.604;13.318;2023-02-12T08:59:55;103176.44;;;6.13;100.00
57234;BME280;43090;52.604;13.318;2023-02-12T09:02:22;103184.09;;;6.34;100.00
57234;BME280;43090;52.604;13.318;2023-02-12T09:04:49;103180.88;;;6.11;100.00
57234;BME280;43090;52.604;13.318;2023-02-12T09:07:19;103178.72;;;6.38;100.00
57234;BME280;43090;52.604;13.318;2023-02-12T09:09:48;103182.34;;;6.33;100.00
57234;BME280;43090;52.604;13.318;2023-02-12T09:12:18;103178.84;;;6.31;100.00
57234;BME280;43090;52.604;13.318;2023-02-12T09:14:45;103183.22;;;6.36;100.00
57234;BME280;43090;52.604;13.318;2023-02-12T09:17:18;103181.84;;;6.67;100.00
57234;BME280;43090;52.604;13.318;2023-02-12T09:19:44;103185.38;;;6.70;100.00
57234;BME280;43090;52.604;13.318;2023-02-12T09:22:11;103197.91;;;6.61;100.00
57234;BME280;43090;52.604;13.318;2023-02-12T09:24:37;103198.16;;;6.46;100.00
57234;BME280;43090;52.604;13.318;2023-02-12T09:27:04;103201.41;;;6.65;100.00
57234;BME280;43090;52.604;13.318;2023-02-12T09:29:41;103203.34;;;6.55;100.00
57234;BME280;43090;52.604;13.318;2023-02-12T09:32:10;103206.75;;;6.63;100.00
57234;BME280;43090;52.604;13.318;2023-02-12T09:34:40;103209.34;;;6.66;100.00
57234;BME280;43090;52.604;13.318;2023-02-12T09:37:07;103218.25;;;6.67;100.00
57234;BME280;43090;52.604;13.318;2023-02-12T09:39:33;103213.88;;;6.63;100.00
57234;BME280;43090;52.604;13.318;2023-02-12T09:44:42;103217.31;;;6.70;100.00
57234;BME280;43090;52.604;13.318;2023-02-12T09:47:16;103219.19;;;6.63;100.00
57234;BME280;43090;52.604;13.318;2023-02-12T09:49:54;103227.63;;;6.91;100.00
57234;BME280;43090;52.604;13.318;2023-02-12T09:52:28;103225.16;;;6.79;100.00
57234;BME280;43090;52.604;13.318;2023-02-12T09:55:00;103230.88;;;7.12;100.00
57234;BME280;43090;52.604;13.318;2023-02-12T09:57:31;103226.34;;;7.15;100.00
57234;BME280;43090;52.604;13.318;2023-02-12T10:00:06;103217.97;;;6.86;100.00
57234;BME280;43090;52.604;13.318;2023-02-12T10:06:29;103227.84;;;7.32;100.00
57234;BME280;43090;52.604;13.318;2023-02-12T10:22:42;103217.47;;;7.15;100.00
57234;BME280;43090;52.604;13.318;2023-02-12T10:25:56;103213.97;;;7.11;100.00
57234;BME280;43090;52.604;13.318;2023-02-12T10:28:33;103212.53;;;6.92;100.00
57234;BME280;43090;52.604;13.318;2023-02-12T10:31:08;103218.44;;;7.11;100.00
57234;BME280;43090;52.604;13.318;2023-02-12T10:33:39;103214.31;;;6.91;100.00
57234;BME280;43090;52.604;13.318;2023-02-12T10:38:44;103218.91;;;6.80;100.00
57234;BME280;43090;52.604;13.318;2023-02-12T10:41:15;103218.34;;;6.59;100.00
57234;BME280;43090;52.604;13.318;2023-02-12T10:58:21;103218.19;;;6.70;100.00
57234;BME280;43090;52.604;13.318;2023-02-12T11:02:13;103226.41;;;6.56;100.00
57234;BME280;43090;52.604;13.318;2023-02-12T11:12:03;103219.34;;;6.52;100.00
57234;BME280;43090;52.604;13.318;2023-02-12T11:29:00;103222.06;;;7.07;100.00
57234;BME280;43090;52.604;13.318;2023-02-12T11:52:41;103211.06;;;6.71;100.00
57234;BME280;43090;52.604;13.318;2023-02-12T11:55:21;103208.69;;;6.54;100.00
57234;BME280;43090;52.604;13.318;2023-02-12T11:57:50;103201.44;;;6.63;100.00
57234;BME280;43090;52.604;13.318;2023-02-12T12:03:15;103203.06;;;6.74;100.00
57234;BME280;43090;52.604;13.318;2023-02-12T12:05:44;103200.34;;;6.77;100.00
57234;BME280;43090;52.604;13.318;2023-02-12T12:10:59;103200.47;;;7.24;100.00
57234;BME280;43090;52.604;13.318;2023-02-12T12:13:31;103191.88;;;7.56;100.00
57234;BME280;43090;52.604;13.318;2023-02-12T12:16:03;103194.38;;;7.64;100.00
57234;BME280;43090;52.604;13.318;2023-02-12T12:18:51;103183.09;;;7.96;100.00
57234;BME280;43090;52.604;13.318;2023-02-12T12:21:53;103173.28;;;7.97;100.00
57234;BME280;43090;52.604;13.318;2023-02-12T12:24:27;103185.75;;;7.96;100.00
57234;BME280;43090;52.604;13.318;2023-02-12T12:27:09;103183.06;;;7.51;100.00
57234;BME280;43090;52.604;13.318;2023-02-12T12:29:54;103173.75;;;7.74;100.00
57234;BME280;43090;52.604;13.318;2023-02-12T12:32:23;103175.84;;;8.01;100.00
57234;BME280;43090;52.604;13.318;2023-02-12T12:34:52;103171.03;;;8.17;100.00
57234;BME280;43090;52.604;13.318;2023-02-12T12:42:52;103169.03;;;7.87;100.00
57234;BME280;43090;52.604;13.318;2023-02-12T12:45:27;103165.50;;;7.86;100.00
57234;BME280;43090;52.604;13.318;2023-02-12T12:56:48;103170.41;;;8.06;100.00
57234;BME280;43090;52.604;13.318;2023-02-12T13:11:37;103154.38;;;8.08;100.00
57234;BME280;43090;52.604;13.318;2023-02-12T13:16:43;103156.44;;;7.93;100.00
57234;BME280;43090;52.604;13.318;2023-02-12T13:19:18;103156.13;;;8.09;100.00
57234;BME280;43090;52.604;13.318;2023-02-12T13:22:05;103150.38;;;8.27;100.00
57234;BME280;43090;52.604;13.318;2023-02-12T13:24:42;103158.81;;;8.48;99.22
57234;BME280;43090;52.604;13.318;2023-02-12T13:27:14;103154.16;;;8.17;99.46
57234;BME280;43090;52.604;13.318;2023-02-12T13:29:43;103153.81;;;8.32;97.20
57234;BME280;43090;52.604;13.318;2023-02-12T13:32:13;103146.41;;;8.47;100.00
57234;BME280;43090;52.604;13.318;2023-02-12T13:34:41;103136.38;;;8.57;99.69
57234;BME280;43090;52.604;13.318;2023-02-12T13:37:20;103139.31;;;8.46;97.24
57234;BME280;43090;52.604;13.318;2023-02-12T13:39:50;103139.13;;;8.13;100.00
57234;BME280;43090;52.604;13.318;2023-02-12T13:45:04;103128.41;;;8.55;100.00
57234;BME280;43090;52.604;13.318;2023-02-12T13:50:29;103130.81;;;8.66;98.36
57234;BME280;43090;52.604;13.318;2023-02-12T14:02:03;103129.03;;;8.65;92.84
57234;BME280;43090;52.604;13.318;2023-02-12T14:07:09;103138.84;;;8.64;94.72
57234;BME280;43090;52.604;13.318;2023-02-12T14:12:26;103127.31;;;8.64;95.57
57234;BME280;43090;52.604;13.318;2023-02-12T14:24:54;103131.25;;;8.83;94.86
57234;BME280;43090;52.604;13.318;2023-02-12T14:36:12;103122.75;;;8.67;94.33
57234;BME280;43090;52.604;13.318;2023-02-12T14:47:02;103127.59;;;8.52;96.31
57234;BME280;43090;52.604;13.318;2023-02-12T14:49:47;103131.13;;;8.54;97.20
57234;BME280;43090;52.604;13.318;2023-02-12T14:52:25;103136.03;;;8.31;97.83
57234;BME280;43090;52.604;13.318;2023-02-12T14:58:19;103130.78;;;8.28;99.24
57234;BME280;43090;52.604;13.318;2023-02-12T15:00:46;103125.66;;;8.19;100.00
57234;BME280;43090;52.604;13.318;2023-02-12T15:03:19;103127.19;;;8.29;100.00
57234;BME280;43090;52.604;13.318;2023-02-12T15:06:04;103119.91;;;8.38;99.11
57234;BME280;43090;52.604;13.318;2023-02-12T15:22:49;103131.13;;;8.13;100.00
57234;BME280;43090;52.604;13.318;2023-02-12T15:25:48;103129.66;;;7.99;100.00
57234;BME280;43090;52.604;13.318;2023-02-12T15:53:57;103147.22;;;7.67;100.00
57234;BME280;43090;52.604;13.318;2023-02-12T16:28:47;103164.66;;;7.39;100.00
57234;BME280;43090;52.604;13.318;2023-02-12T16:31:17;103179.91;;;7.30;100.00
57234;BME280;43090;52.604;13.318;2023-02-12T16:33:50;103181.81;;;7.24;100.00
57234;BME280;43090;52.604;13.318;2023-02-12T16:39:02;103181.59;;;7.36;100.00
57234;BME280;43090;52.604;13.318;2023-02-12T16:41:49;103179.84;;;7.33;100.00
57234;BME280;43090;52.604;13.318;2023-02-12T16:44:22;103182.63;;;7.27;100.00
57234;BME280;43090;52.604;13.318;2023-02-12T16:46:53;103183.34;;;7.37;100.00
57234;BME280;43090;52.604;13.318;2023-02-12T16:49:26;103188.72;;;7.34;100.00
57234;BME280;43090;52.604;13.318;2023-02-12T16:55:26;103193.25;;;7.29;100.00
57234;BME280;43090;52.604;13.318;2023-02-12T17:05:37;103195.03;;;7.28;100.00
57234;BME280;43090;52.604;13.318;2023-02-12T17:30:40;103211.41;;;7.07;100.00
57234;BME280;43090;52.604;13.318;2023-02-12T17:33:37;103210.66;;;6.97;100.00
57234;BME280;43090;52.604;13.318;2023-02-12T17:36:12;103210.53;;;7.05;100.00
57234;BME280;43090;52.604;13.318;2023-02-12T17:46:55;103209.41;;;7.21;100.00
57234;BME280;43090;52.604;13.318;2023-02-12T18:10:30;103223.03;;;7.01;100.00
57234;BME280;43090;52.604;13.318;2023-02-12T18:13:10;103222.41;;;6.87;100.00
57234;BME280;43090;52.604;13.318;2023-02-12T18:37:05;103210.09;;;6.78;100.00
57234;BME280;43090;52.604;13.318;2023-02-12T18:50:46;103207.56;;;6.69;100.00
57234;BME280;43090;52.604;13.318;2023-02-12T18:54:10;103203.41;;;6.49;100.00
57234;BME280;43090;52.604;13.318;2023-02-12T18:57:31;103213.09;;;6.53;100.00
57234;BME280;43090;52.604;13.318;2023-02-12T19:04:05;103213.25;;;6.44;100.00
57234;BME280;43090;52.604;13.318;2023-02-12T19:07:31;103190.34;;;6.32;100.00
57234;BME280;43090;52.604;13.318;2023-02-12T19:10:43;103208.59;;;6.58;100.00
57234;BME280;43090;52.604;13.318;2023-02-12T19:24:28;103219.16;;;6.64;100.00
57234;BME280;43090;52.604;13.318;2023-02-12T19:27:47;103213.06;;;6.58;100.00
57234;BME280;43090;52.604;13.318;2023-02-12T19:30:57;103220.19;;;6.54;100.00
57234;BME280;43090;52.604;13.318;2023-02-12T19:34:17;103218.53;;;6.45;100.00
57234;BME280;43090;52.604;13.318;2023-02-12T21:51:17;103182.81;;;6.62;100.00
57234;BME280;43090;52.604;13.318;2023-02-12T21:53:51;103186.22;;;6.72;100.00
57234;BME280;43090;52.604;13.318;2023-02-12T21:56:27;103185.22;;;6.79;100.00
57234;BME280;43090;52.604;13.318;2023-02-12T22:05:10;103195.81;;;6.82;100.00
57234;BME280;43090;52.604;13.318;2023-02-12T22:08:16;103185.22;;;6.77;100.00
57234;BME280;43090;52.604;13.318;2023-02-12T22:17:07;103187.00;;;6.78;100.00
57234;BME280;43090;52.604;13.318;2023-02-12T22:20:01;103192.97;;;6.93;100.00
57234;BME280;43090;52.604;13.318;2023-02-12T22:28:48;103191.53;;;6.72;100.00
57234;BME280;43090;52.604;13.318;2023-02-12T22:31:26;103194.06;;;6.81;100.00
57234;BME280;43090;52.604;13.318;2023-02-12T22:33:57;103188.50;;;6.96;100.00
57234;BME280;43090;52.604;13.318;2023-02-12T22:36:25;103181.63;;;6.80;100.00
57234;BME280;43090;52.604;13.318;2023-02-12T22:38:53;103193.38;;;6.70;100.00
57234;BME280;43090;52.604;13.318;2023-02-12T22:41:37;103191.50;;;6.73;100.00
57234;BME280;43090;52.604;13.318;2023-02-12T22:44:08;103192.38;;;6.75;100.00
57234;BME280;43090;52.604;13.318;2023-02-12T22:46:35;103186.19;;;6.75;100.00
57234;BME280;43090;52.604;13.318;2023-02-12T22:49:02;103184.22;;;6.86;100.00
57234;BME280;43090;52.604;13.318;2023-02-12T22:51:34;103184.31;;;6.81;100.00
57234;BME280;43090;52.604;13.318;2023-02-12T22:54:14;103181.53;;;6.86;100.00
57234;BME280;43090;52.604;13.318;2023-02-12T22:56:42;103189.53;;;6.86;100.00
57234;BME280;43090;52.604;13.318;2023-02-12T22:59:09;103185.88;;;6.92;100.00
57234;BME280;43090;52.604;13.318;2023-02-12T23:01:56;103187.09;;;6.71;100.00
57234;BME280;43090;52.604;13.318;2023-02-12T23:04:24;103191.59;;;6.69;100.00
57234;BME280;43090;52.604;13.318;2023-02-12T23:06:51;103192.44;;;6.71;100.00
57234;BME280;43090;52.604;13.318;2023-02-12T23:09:18;103197.47;;;6.89;100.00
57234;BME280;43090;52.604;13.318;2023-02-12T23:11:48;103198.25;;;6.97;100.00